CST,Max TemperatureF,Mean TemperatureF,Min TemperatureF,Max Dew PointF,MeanDew PointF,Min DewpointF,Max Humidity, Mean Humidity, Min Humidity, Max Sea Level PressureIn, Mean Sea Level PressureIn, Min Sea Level PressureIn, Max VisibilityMiles, Mean VisibilityMiles, Min VisibilityMiles, Max Wind SpeedMPH, Mean Wind SpeedMPH, Max Gust SpeedMPH,PrecipitationIn, CloudCover, Events, WindDirDegrees
2012-11-1,35,30,26,34,30,23,100,90,86,30.13,30.00,29.92,10,10,5,14,7,22,0.00,8,Rain-Snow,331
2012-11-2,35,27,19,27,21,16,93,84,70,30.24,30.18,30.13,10,10,10,7,4,,0.00,5,,11
2012-11-3,39,28,17,32,22,16,100,86,61,30.28,30.26,30.24,10,10,10,5,0,,0.00,1,,182
2012-11-4,32,22,12,30,22,10,100,90,86,30.29,30.27,30.25,10,10,10,5,0,,0.00,6,,40
2012-11-5,37,32,26,30,26,25,93,80,60,30.28,30.14,29.85,10,10,10,8,1,,0.00,8,,162
2012-11-6,37,34,32,36,33,30,100,95,87,29.94,29.78,29.68,10,5,2,7,2,,0.15,8,Rain,155
2012-11-7,37,32,28,37,33,28,100,98,93,30.06,30.02,29.94,10,7,1,5,0,,0.00,7,Rain,207
2012-11-8,41,36,32,41,36,32,100,99,93,30.13,29.95,29.83,10,10,3,9,5,18,0.02,7,Rain,203
2012-11-9,35,30,26,36,30,25,100,98,93,30.23,30.19,30.14,10,10,10,9,4,,0.00,7,,22
2012-11-10,39,32,26,39,30,27,100,99,93,30.16,29.84,29.50,10,6,0,7,2,,1.11,8,Rain-Snow-Thunderstorm,75
2012-11-11,46,34,21,46,31,19,100,99,93,29.73,29.60,29.41,10,6,1,10,4,18,0.03,8,Rain-Snow-Thunderstorm,236
2012-11-12,24,20,17,23,20,18,100,95,93,30.14,29.86,29.72,10,6,2,9,5,,0.00,8,Snow,242
2012-11-13,32,26,19,28,22,18,100,90,80,30.25,30.22,30.15,10,10,10,8,4,,0.00,6,,195
2012-11-14,41,28,15,39,26,14,100,94,81,30.24,30.17,30.05,10,10,10,7,1,,0.00,5,,168
2012-11-15,37,24,12,34,25,10,93,83,73,30.47,30.24,30.01,10,10,10,12,5,18,0.00,2,,258
2012-11-16,39,24,8,23,15,7,93,73,39,30.49,30.40,30.27,10,10,10,9,2,,0.00,1,,161
2012-11-17,44,38,32,37,30,23,87,76,65,30.27,30.18,30.15,10,10,10,8,4,,0.00,2,Rain,167
2012-11-18,53,38,23,37,30,21,93,71,41,30.16,30.09,30.03,10,10,7,7,4,,0.00,3,Rain,155
2012-11-19,51,37,23,37,30,21,93,81,54,30.09,30.02,29.96,10,9,4,9,1,,0.00,2,Rain-Thunderstorm,180
2012-11-20,37,30,23,32,27,19,100,89,75,30.18,30.09,29.94,10,7,3,7,1,,0.00,4,,185
2012-11-21,51,38,26,36,30,23,93,77,50,29.95,29.83,29.60,10,10,10,8,3,,0.00,0,,169
2012-11-22,41,31,21,37,29,19,100,92,86,29.86,29.64,29.51,10,6,0,17,4,29,0.09,4,Rain-Snow,291
2012-11-23,21,16,10,19,14,7,100,90,79,30.32,30.20,29.87,10,7,0,17,11,29,0.01,8,Snow,334
2012-11-24,17,8,-2,16,8,-6,93,86,73,30.31,30.04,29.77,10,7,0,8,2,,0.03,5,Snow,170
2012-11-25,21,14,8,19,14,5,100,91,85,30.14,29.90,29.76,10,6,1,9,4,18,0.00,8,Snow,288
2012-11-26,15,10,6,10,6,3,92,85,67,30.31,30.24,30.14,10,7,2,7,3,,0.00,7,Snow,244
2012-11-27,24,14,3,21,13,1,93,86,79,30.21,30.09,30.04,10,8,1,8,4,,0.01,7,Snow,240
2012-11-28,23,12,1,21,9,0,93,85,73,30.26,30.15,30.01,10,9,2,8,4,,0.00,7,Snow,218
2012-11-29,19,14,10,16,9,7,92,84,79,30.32,30.26,30.14,10,10,2,8,4,,0.00,7,Snow,26
2012-11-30,28,19,10,27,19,9,100,90,80,30.31,30.18,30.02,10,8,2,6,1,,0.01,8,Snow,139